sensor_id;sensor_type;location;lat;lon;timestamp;pressure;altitude;pressure_sealevel;temperature;humidity
48390;BME280;34643;47.964;7.982;2023-02-28T00:00:25;97057.09;;;16.20;52.23
48390;BME280;34643;47.964;7.982;2023-02-28T00:05:26;97058.16;;;16.17;52.24
48390;BME280;34643;47.964;7.982;2023-02-28T00:10:29;97059.06;;;16.16;52.24
48390;BME280;34643;47.964;7.982;2023-02-28T00:15:30;97045.22;;;16.15;52.09
48390;BME280;34643;47.964;7.982;2023-02-28T00:20:30;97055.63;;;16.15;52.08
48390;BME280;34643;47.964;7.982;2023-02-28T00:25:31;97055.53;;;16.17;52.07
48390;BME280;34643;47.964;7.982;2023-02-28T00:30:32;97053.03;;;16.15;52.16
48390;BME280;34643;47.964;7.982;2023-02-28T00:35:32;97056.47;;;16.16;51.90
48390;BME280;34643;47.964;7.982;2023-02-28T00:40:33;97057.41;;;16.15;51.96
48390;BME280;34643;47.964;7.982;2023-02-28T00:45:33;97047.00;;;16.15;51.79
48390;BME280;34643;47.964;7.982;2023-02-28T00:50:33;97058.16;;;16.17;51.79
48390;BME280;34643;47.964;7.982;2023-02-28T00:55:34;97051.34;;;16.14;51.72
48390;BME280;34643;47.964;7.982;2023-02-28T01:00:34;97044.28;;;16.16;51.81
48390;BME280;34643;47.964;7.982;2023-02-28T01:05:36;97055.63;;;16.15;51.71
48390;BME280;34643;47.964;7.982;2023-02-28T01:10:37;97042.63;;;16.15;51.73
48390;BME280;34643;47.964;7.982;2023-02-28T01:15:39;97052.31;;;16.13;51.82
48390;BME280;34643;47.964;7.982;2023-02-28T01:20:41;97047.81;;;16.15;51.72
48390;BME280;34643;47.964;7.982;2023-02-28T01:25:44;97026.91;;;16.17;51.63
48390;BME280;34643;47.964;7.982;2023-02-28T01:30:47;97037.50;;;16.14;51.60
48390;BME280;34643;47.964;7.982;2023-02-28T01:35:48;97039.38;;;16.12;51.83
48390;BME280;34643;47.964;7.982;2023-02-28T01:40:48;97037.50;;;16.14;51.65
48390;BME280;34643;47.964;7.982;2023-02-28T01:45:52;97039.38;;;16.12;51.63
48390;BME280;34643;47.964;7.982;2023-02-28T01:50:53;97031.47;;;16.13;51.51
48390;BME280;34643;47.964;7.982;2023-02-28T01:55:54;97023.75;;;16.12;51.62
48390;BME280;34643;47.964;7.982;2023-02-28T02:00:56;97019.28;;;16.14;51.66
48390;BME280;34643;47.964;7.982;2023-02-28T02:05:57;97017.59;;;16.13;51.59
48390;BME280;34643;47.964;7.982;2023-02-28T02:10:59;97021.06;;;16.13;51.71
48390;BME280;34643;47.964;7.982;2023-02-28T02:26:12;97019.38;;;16.12;51.54
48390;BME280;34643;47.964;7.982;2023-02-28T02:31:27;97009.06;;;16.11;51.69
48390;BME280;34643;47.964;7.982;2023-02-28T02:41:53;97002.09;;;16.11;51.53
48390;BME280;34643;47.964;7.982;2023-02-28T02:47:08;97007.31;;;16.11;51.47
48390;BME280;34643;47.964;7.982;2023-02-28T02:52:10;97003.00;;;16.10;51.36
48390;BME280;34643;47.964;7.982;2023-02-28T02:57:17;97001.25;;;16.11;51.51
48390;BME280;34643;47.964;7.982;2023-02-28T03:02:20;96996.88;;;16.11;51.52
48390;BME280;34643;47.964;7.982;2023-02-28T03:07:21;96998.63;;;16.11;51.53
48390;BME280;34643;47.964;7.982;2023-02-28T03:12:23;97001.03;;;16.14;51.60
48390;BME280;34643;47.964;7.982;2023-02-28T03:38:28;97006.16;;;16.15;51.30
48390;BME280;34643;47.964;7.982;2023-02-28T03:43:31;97008.75;;;16.15;51.40
48390;BME280;34643;47.964;7.982;2023-02-28T03:48:39;97013.16;;;16.15;51.30
48390;BME280;34643;47.964;7.982;2023-02-28T03:53:42;97007.94;;;16.15;51.31
48390;BME280;34643;47.964;7.982;2023-02-28T03:58:48;97008.94;;;16.12;51.36
48390;BME280;34643;47.964;7.982;2023-02-28T04:03:51;97008.94;;;16.12;51.24
48390;BME280;34643;47.964;7.982;2023-02-28T04:08:51;97005.63;;;16.10;51.39
48390;BME280;34643;47.964;7.982;2023-02-28T04:13:51;97008.94;;;16.12;51.62
48390;BME280;34643;47.964;7.982;2023-02-28T04:18:52;97016.78;;;16.12;51.32
48390;BME280;34643;47.964;7.982;2023-02-28T04:23:52;97013.34;;;16.12;51.23
48390;BME280;34643;47.964;7.982;2023-02-28T04:28:52;97008.94;;;16.12;51.16
48390;BME280;34643;47.964;7.982;2023-02-28T04:33:53;97015.13;;;16.11;51.27
48390;BME280;34643;47.964;7.982;2023-02-28T04:38:53;97014.25;;;16.11;51.33
48390;BME280;34643;47.964;7.982;2023-02-28T04:43:54;97008.56;;;16.19;51.04
48390;BME280;34643;47.964;7.982;2023-02-28T04:48:56;97016.25;;;16.20;50.99
48390;BME280;34643;47.964;7.982;2023-02-28T04:53:56;97018.56;;;16.25;51.21
48390;BME280;34643;47.964;7.982;2023-02-28T04:58:56;97021.38;;;16.22;51.31
48390;BME280;34643;47.964;7.982;2023-02-28T05:03:57;97029.63;;;16.28;51.28
48390;BME280;34643;47.964;7.982;2023-02-28T05:08:58;97027.09;;;16.27;51.38
48390;BME280;34643;47.964;7.982;2023-02-28T05:13:59;97038.47;;;16.26;51.65
48390;BME280;34643;47.964;7.982;2023-02-28T05:19:02;97038.38;;;16.27;51.71
48390;BME280;34643;47.964;7.982;2023-02-28T05:24:04;97037.13;;;16.33;51.81
48390;BME280;34643;47.964;7.982;2023-02-28T05:29:05;97044.53;;;16.39;52.10
48390;BME280;34643;47.964;7.982;2023-02-28T05:34:05;97041.75;;;16.55;52.50
48390;BME280;34643;47.964;7.982;2023-02-28T05:39:06;97048.59;;;12.19;43.69
48390;BME280;34643;47.964;7.982;2023-02-28T05:44:07;97059.22;;;10.61;44.00
48390;BME280;34643;47.964;7.982;2023-02-28T05:49:08;97058.59;;;9.69;42.39
48390;BME280;34643;47.964;7.982;2023-02-28T05:54:08;97060.41;;;8.98;42.81
48390;BME280;34643;47.964;7.982;2023-02-28T05:59:09;97050.28;;;10.27;43.12
48390;BME280;34643;47.964;7.982;2023-02-28T06:04:10;97055.00;;;13.31;43.61
48390;BME280;34643;47.964;7.982;2023-02-28T06:09:10;97054.63;;;14.17;42.44
48390;BME280;34643;47.964;7.982;2023-02-28T06:14:17;97053.22;;;14.41;43.11
48390;BME280;34643;47.964;7.982;2023-02-28T06:19:18;97050.81;;;14.53;43.43
48390;BME280;34643;47.964;7.982;2023-02-28T06:24:19;97051.25;;;14.61;43.71
48390;BME280;34643;47.964;7.982;2023-02-28T06:29:19;97056.28;;;14.64;44.41
48390;BME280;34643;47.964;7.982;2023-02-28T06:34:19;97058.66;;;14.67;44.67
48390;BME280;34643;47.964;7.982;2023-02-28T06:39:20;97062.88;;;14.70;45.18
48390;BME280;34643;47.964;7.982;2023-02-28T06:44:21;97072.22;;;14.72;45.28
48390;BME280;34643;47.964;7.982;2023-02-28T06:49:21;97071.47;;;14.70;45.90
48390;BME280;34643;47.964;7.982;2023-02-28T06:54:21;97071.41;;;14.72;46.07
48390;BME280;34643;47.964;7.982;2023-02-28T06:59:22;97077.44;;;14.72;46.05
48390;BME280;34643;47.964;7.982;2023-02-28T07:04:23;97076.59;;;14.72;46.55
48390;BME280;34643;47.964;7.982;2023-02-28T07:09:23;97084.47;;;14.70;46.68
48390;BME280;34643;47.964;7.982;2023-02-28T07:14:23;97089.69;;;14.70;46.86
48390;BME280;34643;47.964;7.982;2023-02-28T07:19:24;97099.97;;;14.72;46.91
48390;BME280;34643;47.964;7.982;2023-02-28T07:24:24;97099.25;;;14.70;47.02
48390;BME280;34643;47.964;7.982;2023-02-28T07:29:28;97095.97;;;14.66;47.36
48390;BME280;34643;47.964;7.982;2023-02-28T07:34:28;97093.31;;;14.68;47.43
48390;BME280;34643;47.964;7.982;2023-02-28T07:39:29;97091.63;;;14.67;47.39
48390;BME280;34643;47.964;7.982;2023-02-28T07:44:29;97106.28;;;14.68;47.65
48390;BME280;34643;47.964;7.982;2023-02-28T07:49:29;97109.63;;;14.70;47.52
48390;BME280;34643;47.964;7.982;2023-02-28T07:54:30;97106.28;;;14.68;47.55
48390;BME280;34643;47.964;7.982;2023-02-28T07:59:30;97109.81;;;14.67;47.64
48390;BME280;34643;47.964;7.982;2023-02-28T08:04:33;97102.19;;;14.63;48.06
48390;BME280;34643;47.964;7.982;2023-02-28T08:09:34;97105.63;;;14.64;47.99
48390;BME280;34643;47.964;7.982;2023-02-28T08:14:35;97110.16;;;14.60;48.06
48390;BME280;34643;47.964;7.982;2023-02-28T08:19:35;97110.16;;;14.60;48.06
48390;BME280;34643;47.964;7.982;2023-02-28T08:24:35;97106.81;;;14.58;48.09
48390;BME280;34643;47.964;7.982;2023-02-28T08:29:39;97117.19;;;14.58;48.29
48390;BME280;34643;47.964;7.982;2023-02-28T08:34:39;97119.88;;;14.57;48.11
48390;BME280;34643;47.964;7.982;2023-02-28T08:39:40;97127.75;;;14.55;48.03
48390;BME280;34643;47.964;7.982;2023-02-28T08:44:40;97133.78;;;14.56;48.33
48390;BME280;34643;47.964;7.982;2023-02-28T08:49:41;97141.72;;;14.53;48.37
48390;BME280;34643;47.964;7.982;2023-02-28T08:54:41;97140.06;;;14.52;48.53
48390;BME280;34643;47.964;7.982;2023-02-28T08:59:41;97152.22;;;14.51;48.31
48390;BME280;34643;47.964;7.982;2023-02-28T09:04:42;97154.81;;;14.51;48.54
48390;BME280;34643;47.964;7.982;2023-02-28T09:09:42;97150.56;;;14.50;48.36
48390;BME280;34643;47.964;7.982;2023-02-28T09:14:54;97151.47;;;14.49;48.46
48390;BME280;34643;47.964;7.982;2023-02-28T09:19:54;97154.25;;;14.46;48.49
48390;BME280;34643;47.964;7.982;2023-02-28T09:24:55;97153.31;;;14.47;48.75
48390;BME280;34643;47.964;7.982;2023-02-28T09:29:55;97155.91;;;14.47;48.57
48390;BME280;34643;47.964;7.982;2023-02-28T09:34:56;97165.56;;;14.45;48.76
48390;BME280;34643;47.964;7.982;2023-02-28T09:39:56;97165.63;;;14.43;48.80
48390;BME280;34643;47.964;7.982;2023-02-28T09:44:56;97166.53;;;14.42;48.74
48390;BME280;34643;47.964;7.982;2023-02-28T09:49:59;97179.53;;;14.42;48.69
48390;BME280;34643;47.964;7.982;2023-02-28T10:00:33;97178.88;;;14.39;48.83
48390;BME280;34643;47.964;7.982;2023-02-28T10:10:49;97175.53;;;14.37;48.87
48390;BME280;34643;47.964;7.982;2023-02-28T10:15:56;97171.28;;;14.36;48.77
48390;BME280;34643;47.964;7.982;2023-02-28T10:20:59;97169.59;;;14.35;49.08
48390;BME280;34643;47.964;7.982;2023-02-28T10:26:10;97170.53;;;14.34;49.11
48390;BME280;34643;47.964;7.982;2023-02-28T10:36:14;97180.91;;;14.34;48.82
48390;BME280;34643;47.964;7.982;2023-02-28T10:41:16;97180.13;;;14.32;48.90
48390;BME280;34643;47.964;7.982;2023-02-28T10:46:18;97191.47;;;14.31;49.23
48390;BME280;34643;47.964;7.982;2023-02-28T10:51:25;97190.63;;;14.30;48.78
48390;BME280;34643;47.964;7.982;2023-02-28T10:56:34;97185.53;;;14.29;49.08
48390;BME280;34643;47.964;7.982;2023-02-28T11:01:41;97196.72;;;14.29;49.21
48390;BME280;34643;47.964;7.982;2023-02-28T11:06:41;97197.75;;;14.26;48.96
48390;BME280;34643;47.964;7.982;2023-02-28T11:11:43;97197.75;;;14.26;49.24
48390;BME280;34643;47.964;7.982;2023-02-28T11:16:43;97193.47;;;14.25;49.36
48390;BME280;34643;47.964;7.982;2023-02-28T11:21:47;97192.63;;;14.25;48.96
48390;BME280;34643;47.964;7.982;2023-02-28T11:26:50;97191.78;;;14.24;48.91
48390;BME280;34643;47.964;7.982;2023-02-28T11:37:16;97190.13;;;14.23;49.11
48390;BME280;34643;47.964;7.982;2023-02-28T11:52:45;97182.72;;;14.32;48.88
48390;BME280;34643;47.964;7.982;2023-02-28T12:08:10;97180.94;;;14.80;48.37
48390;BME280;34643;47.964;7.982;2023-02-28T12:13:19;97184.66;;;14.90;48.52
48390;BME280;34643;47.964;7.982;2023-02-28T12:18:38;97185.59;;;14.89;48.72
48390;BME280;34643;47.964;7.982;2023-02-28T12:28:57;97174.19;;;15.06;48.64
48390;BME280;34643;47.964;7.982;2023-02-28T12:34:01;97174.94;;;15.08;48.78
48390;BME280;34643;47.964;7.982;2023-02-28T12:39:04;97171.91;;;15.16;48.73
48390;BME280;34643;47.964;7.982;2023-02-28T12:44:12;97171.63;;;15.20;48.89
48390;BME280;34643;47.964;7.982;2023-02-28T12:49:16;97174.34;;;15.19;48.94
48390;BME280;34643;47.964;7.982;2023-02-28T13:09:31;97151.94;;;15.31;49.15
48390;BME280;34643;47.964;7.982;2023-02-28T13:14:35;97144.72;;;15.36;49.07
48390;BME280;34643;47.964;7.982;2023-02-28T13:19:58;97149.09;;;15.35;49.27
48390;BME280;34643;47.964;7.982;2023-02-28T13:24:57;97148.91;;;15.38;49.16
48390;BME280;34643;47.964;7.982;2023-02-28T13:29:58;97147.78;;;15.43;49.25
48390;BME280;34643;47.964;7.982;2023-02-28T13:40:07;97151.94;;;15.45;49.25
48390;BME280;34643;47.964;7.982;2023-02-28T13:45:24;97152.69;;;15.47;49.28
48390;BME280;34643;47.964;7.982;2023-02-28T14:05:45;97159.19;;;15.54;49.33
48390;BME280;34643;47.964;7.982;2023-02-28T14:10:46;97163.47;;;15.55;49.21
48390;BME280;34643;47.964;7.982;2023-02-28T14:15:48;97164.41;;;15.54;49.24
48390;BME280;34643;47.964;7.982;2023-02-28T14:20:49;97182.53;;;15.56;49.27
48390;BME280;34643;47.964;7.982;2023-02-28T14:41:14;97182.81;;;15.66;49.11
48390;BME280;34643;47.964;7.982;2023-02-28T14:46:15;97186.34;;;15.65;49.27
48390;BME280;34643;47.964;7.982;2023-02-28T14:51:18;97176.78;;;15.65;49.16
48390;BME280;34643;47.964;7.982;2023-02-28T14:56:30;97184.69;;;15.64;49.20
48390;BME280;34643;47.964;7.982;2023-02-28T15:01:32;97190.63;;;15.66;49.21
48390;BME280;34643;47.964;7.982;2023-02-28T15:06:33;97187.94;;;15.67;49.31
48390;BME280;34643;47.964;7.982;2023-02-28T15:11:34;97192.19;;;15.68;49.09
48390;BME280;34643;47.964;7.982;2023-02-28T15:16:36;97187.94;;;15.67;49.26
48390;BME280;34643;47.964;7.982;2023-02-28T15:21:39;97186.25;;;15.66;49.26
48390;BME280;34643;47.964;7.982;2023-02-28T15:26:43;97186.06;;;15.69;49.26
48390;BME280;34643;47.964;7.982;2023-02-28T15:31:48;97205.50;;;15.64;49.23
48390;BME280;34643;47.964;7.982;2023-02-28T15:36:48;97195.75;;;15.67;49.25
48390;BME280;34643;47.964;7.982;2023-02-28T15:41:49;97201.84;;;15.66;49.23
48390;BME280;34643;47.964;7.982;2023-02-28T15:46:59;97193.31;;;15.64;49.37
48390;BME280;34643;47.964;7.982;2023-02-28T15:52:01;97197.69;;;15.64;49.33
48390;BME280;34643;47.964;7.982;2023-02-28T15:57:04;97197.78;;;15.62;49.40
48390;BME280;34643;47.964;7.982;2023-02-28T16:07:12;97198.78;;;15.74;49.25
48390;BME280;34643;47.964;7.982;2023-02-28T16:12:13;97196.69;;;15.81;49.78
48390;BME280;34643;47.964;7.982;2023-02-28T16:17:16;97205.22;;;15.83;50.02
48390;BME280;34643;47.964;7.982;2023-02-28T16:22:19;97208.69;;;15.83;50.84
48390;BME280;34643;47.964;7.982;2023-02-28T16:27:21;97209.69;;;15.81;50.71
48390;BME280;34643;47.964;7.982;2023-02-28T16:32:25;97206.44;;;15.77;51.17
48390;BME280;34643;47.964;7.982;2023-02-28T16:37:26;97214.50;;;15.58;51.21
48390;BME280;34643;47.964;7.982;2023-02-28T16:42:27;97214.13;;;15.50;50.96
48390;BME280;34643;47.964;7.982;2023-02-28T16:47:28;97222.19;;;15.45;50.99
48390;BME280;34643;47.964;7.982;2023-02-28T16:52:28;97228.59;;;15.39;50.89
48390;BME280;34643;47.964;7.982;2023-02-28T16:57:28;97228.78;;;15.36;50.75
48390;BME280;34643;47.964;7.982;2023-02-28T17:02:29;97223.94;;;15.30;50.79
48390;BME280;34643;47.964;7.982;2023-02-28T17:07:29;97230.16;;;15.28;50.79
48390;BME280;34643;47.964;7.982;2023-02-28T17:12:29;97235.63;;;15.23;50.56
48390;BME280;34643;47.964;7.982;2023-02-28T17:17:30;97244.56;;;15.19;50.64
48390;BME280;34643;47.964;7.982;2023-02-28T17:22:31;97247.31;;;15.16;50.62
48390;BME280;34643;47.964;7.982;2023-02-28T17:27:31;97252.69;;;15.13;50.66
48390;BME280;34643;47.964;7.982;2023-02-28T17:32:31;97263.25;;;15.10;50.42
48390;BME280;34643;47.964;7.982;2023-02-28T17:37:32;97260.84;;;15.07;50.46
48390;BME280;34643;47.964;7.982;2023-02-28T17:42:32;97271.44;;;15.04;50.52
48390;BME280;34643;47.964;7.982;2023-02-28T17:47:32;97274.19;;;15.00;50.54
48390;BME280;34643;47.964;7.982;2023-02-28T17:52:33;97277.91;;;14.96;50.43
48390;BME280;34643;47.964;7.982;2023-02-28T17:57:36;97274.28;;;14.99;50.43
48390;BME280;34643;47.964;7.982;2023-02-28T18:02:37;97274.53;;;15.10;50.22
48390;BME280;34643;47.964;7.982;2023-02-28T18:07:37;97283.19;;;15.25;49.96
48390;BME280;34643;47.964;7.982;2023-02-28T18:12:38;97285.41;;;15.31;50.15
48390;BME280;34643;47.964;7.982;2023-02-28T18:17:39;97274.94;;;15.33;50.22
48390;BME280;34643;47.964;7.982;2023-02-28T18:22:39;97284.34;;;15.35;50.27
48390;BME280;34643;47.964;7.982;2023-02-28T18:27:40;97273.75;;;15.38;50.13
48390;BME280;34643;47.964;7.982;2023-02-28T18:32:52;97275.28;;;15.71;50.60
48390;BME280;34643;47.964;7.982;2023-02-28T18:37:53;97269.38;;;15.84;51.16
48390;BME280;34643;47.964;7.982;2023-02-28T18:42:53;97276.72;;;15.91;51.60
48390;BME280;34643;47.964;7.982;2023-02-28T18:47:53;97278.66;;;16.02;51.71
48390;BME280;34643;47.964;7.982;2023-02-28T18:52:54;97273.66;;;15.99;52.02
48390;BME280;34643;47.964;7.982;2023-02-28T18:57:56;97271.63;;;16.04;52.13
48390;BME280;34643;47.964;7.982;2023-02-28T19:02:56;97268.06;;;16.05;52.30
48390;BME280;34643;47.964;7.982;2023-02-28T19:07:56;97261.38;;;16.01;52.33
48390;BME280;34643;47.964;7.982;2023-02-28T19:12:57;97269.22;;;15.87;52.70
48390;BME280;34643;47.964;7.982;2023-02-28T19:17:57;97274.59;;;15.84;52.85
48390;BME280;34643;47.964;7.982;2023-02-28T19:22:57;97265.00;;;15.84;52.75
48390;BME280;34643;47.964;7.982;2023-02-28T19:27:58;97271.06;;;15.85;52.87
48390;BME280;34643;47.964;7.982;2023-02-28T19:32:58;97262.31;;;15.86;52.85
48390;BME280;34643;47.964;7.982;2023-02-28T19:37:58;97265.75;;;15.86;53.03
48390;BME280;34643;47.964;7.982;2023-02-28T19:42:59;97260.44;;;15.88;52.86
48390;BME280;34643;47.964;7.982;2023-02-28T19:47:59;97263.13;;;15.86;52.83
48390;BME280;34643;47.964;7.982;2023-02-28T19:52:59;97259.53;;;15.89;52.99
48390;BME280;34643;47.964;7.982;2023-02-28T19:58:01;97253.50;;;15.88;52.84
48390;BME280;34643;47.964;7.982;2023-02-28T20:03:02;97242.22;;;15.88;53.25
48390;BME280;34643;47.964;7.982;2023-02-28T20:08:03;97234.22;;;15.91;53.29
48390;BME280;34643;47.964;7.982;2023-02-28T20:13:04;97239.25;;;15.94;53.17
48390;BME280;34643;47.964;7.982;2023-02-28T20:18:04;97244.38;;;15.95;53.54
48390;BME280;34643;47.964;7.982;2023-02-28T20:23:05;97239.19;;;15.95;53.38
48390;BME280;34643;47.964;7.982;2023-02-28T20:28:05;97235.91;;;15.92;53.39
48390;BME280;34643;47.964;7.982;2023-02-28T20:33:05;97238.22;;;15.96;53.49
48390;BME280;34643;47.964;7.982;2023-02-28T20:38:06;97238.78;;;16.02;53.34
48390;BME280;34643;47.964;7.982;2023-02-28T20:43:06;97236.84;;;15.91;53.08
48390;BME280;34643;47.964;7.982;2023-02-28T20:48:07;97230.97;;;15.87;52.86
48390;BME280;34643;47.964;7.982;2023-02-28T20:53:07;97229.78;;;15.93;52.54
48390;BME280;34643;47.964;7.982;2023-02-28T20:58:08;97230.72;;;15.92;52.54
48390;BME280;34643;47.964;7.982;2023-02-28T21:03:08;97235.06;;;15.91;52.59
48390;BME280;34643;47.964;7.982;2023-02-28T21:08:08;97227.34;;;15.90;52.52
48390;BME280;34643;47.964;7.982;2023-02-28T21:13:09;97227.34;;;15.90;52.72
48390;BME280;34643;47.964;7.982;2023-02-28T21:18:09;97224.00;;;15.88;52.58
48390;BME280;34643;47.964;7.982;2023-02-28T21:23:09;97224.88;;;15.88;52.65
48390;BME280;34643;47.964;7.982;2023-02-28T21:28:10;97220.66;;;15.86;52.63
48390;BME280;34643;47.964;7.982;2023-02-28T21:33:10;97208.78;;;15.82;53.28
48390;BME280;34643;47.964;7.982;2023-02-28T21:38:10;97210.25;;;15.86;52.71
48390;BME280;34643;47.964;7.982;2023-02-28T21:43:11;97212.13;;;15.84;52.55
48390;BME280;34643;47.964;7.982;2023-02-28T21:48:11;97200.00;;;15.83;52.55
48390;BME280;34643;47.964;7.982;2023-02-28T21:53:11;97204.47;;;15.81;52.53
48390;BME280;34643;47.964;7.982;2023-02-28T21:58:11;97195.03;;;15.80;52.46
48390;BME280;34643;47.964;7.982;2023-02-28T22:03:13;97199.50;;;15.77;53.34
48390;BME280;34643;47.964;7.982;2023-02-28T22:08:13;97201.22;;;15.77;53.15
48390;BME280;34643;47.964;7.982;2023-02-28T22:13:13;97202.91;;;15.78;53.24
48390;BME280;34643;47.964;7.982;2023-02-28T22:18:14;97207.19;;;15.79;53.00
48390;BME280;34643;47.964;7.982;2023-02-28T22:23:14;97212.50;;;15.77;52.99
48390;BME280;34643;47.964;7.982;2023-02-28T22:28:14;97210.00;;;15.76;52.96
48390;BME280;34643;47.964;7.982;2023-02-28T22:33:15;97200.41;;;15.76;52.74
48390;BME280;34643;47.964;7.982;2023-02-28T22:38:16;97201.31;;;15.75;52.63
48390;BME280;34643;47.964;7.982;2023-02-28T22:43:16;97201.31;;;15.75;52.61
48390;BME280;34643;47.964;7.982;2023-02-28T22:48:17;97198.78;;;15.74;52.57
48390;BME280;34643;47.964;7.982;2023-02-28T22:53:17;97199.66;;;15.74;52.22
48390;BME280;34643;47.964;7.982;2023-02-28T22:58:17;97200.56;;;15.73;52.16
48390;BME280;34643;47.964;7.982;2023-02-28T23:03:17;97197.94;;;15.73;52.24
48390;BME280;34643;47.964;7.982;2023-02-28T23:08:18;97195.19;;;15.76;51.78
48390;BME280;34643;47.964;7.982;2023-02-28T23:13:22;97195.13;;;15.78;51.77
48390;BME280;34643;47.964;7.982;2023-02-28T23:18:22;97196.88;;;15.77;51.51
48390;BME280;34643;47.964;7.982;2023-02-28T23:23:23;97184.78;;;15.76;51.53
48390;BME280;34643;47.964;7.982;2023-02-28T23:28:23;97176.25;;;15.74;51.42
48390;BME280;34643;47.964;7.982;2023-02-28T23:33:23;97188.41;;;15.88;51.78
48390;BME280;34643;47.964;7.982;2023-02-28T23:38:25;97185.91;;;15.87;51.59
48390;BME280;34643;47.964;7.982;2023-02-28T23:43:26;97187.78;;;15.85;51.71
48390;BME280;34643;47.964;7.982;2023-02-28T23:48:27;97188.69;;;15.84;51.69
48390;BME280;34643;47.964;7.982;2023-02-28T23:53:30;97182.66;;;15.83;51.98
48390;BME280;34643;47.964;7.982;2023-02-28T23:58:32;97176.59;;;15.83;51.67
